Time;durP1;ratioP1;P1;durP2;ratioP2;P2;SDS_P1;SDS_P2;PMS_P1;PMS_P2;Temp;Humidity;BMP_temperature;BMP_pressure;BME280_temperature;BME280_humidity;BME280_pressure;Samples;Min_cycle;Max_cycle;Signal;HPM_P1;HPM_P2
2022/04/19 03:31:07;;;;;;;;;;;;;;;6.61;100.00;99300.06;6331623;22;20245;-93
2022/04/19 03:33:36;;;;;;;;;;;;;;;6.60;100.00;99298.31;6338344;22;19915;-92
2022/04/19 03:36:01;;;;;;;;;;;;;;;6.62;100.00;99296.50;6340317;22;19979;-92
2022/04/19 03:38:29;;;;;;;;;;;;;;;6.64;100.00;99299.94;6339811;22;19914;-89
2022/04/19 03:40:54;;;;;;;;;;;;;;;6.64;100.00;99293.84;6339550;22;20238;-88
2022/04/19 03:43:20;;;;;;;;;;;;;;;6.68;100.00;99292.78;6338868;22;19915;-89
2022/04/19 03:45:45;;;;;;;;;;;;;;;6.66;100.00;99290.22;6309678;22;19911;-91
2022/04/19 03:48:13;;;;;;;;;;;;;;;6.66;100.00;99292.84;6338641;22;20350;-90
2022/04/19 03:50:41;;;;;;;;;;;;;;;6.66;100.00;99292.84;6311817;22;19941;-91
2022/04/19 03:53:07;;;;;;;;;;;;;;;6.69;100.00;99284.84;6311404;22;19946;-90
2022/04/19 03:55:32;;;;;;;;;;;;;;;6.66;100.00;99292.84;6312046;22;19922;-88
2022/04/19 03:57:58;;;;;;;;;;;;;;;5.87;100.00;99297.19;6339222;22;19910;-92
2022/04/19 04:00:23;;;;;;;;;;;;;;;5.21;100.00;99292.13;6309979;22;19918;-90
2022/04/19 04:02:48;;;;;;;;;;;;;;;4.96;100.00;99291.09;6338817;22;19985;-89
2022/04/19 04:05:13;;;;;;;;;;;;;;;4.83;100.00;99288.81;6311404;22;20003;-87
2022/04/19 04:07:39;;;;;;;;;;;;;;;4.71;100.00;99297.03;6311481;22;19911;-88
2022/04/19 04:10:05;;;;;;;;;;;;;;;4.69;100.00;99291.81;6338600;22;20025;-88
2022/04/19 04:12:30;;;;;;;;;;;;;;;4.62;100.00;99292.88;6338555;22;19922;-88
2022/04/19 04:14:56;;;;;;;;;;;;;;;4.47;100.00;99296.78;6337054;22;20120;-88
2022/04/19 04:17:21;;;;;;;;;;;;;;;4.40;99.98;99299.59;6338503;22;19921;-89
2022/04/19 04:19:46;;;;;;;;;;;;;;;4.34;99.86;99297.97;6338525;22;19997;-89
2022/04/19 04:22:12;;;;;;;;;;;;;;;4.29;99.49;99297.22;6338598;22;19918;-89
2022/04/19 04:24:37;;;;;;;;;;;;;;;4.28;99.43;99295.53;6310906;22;20314;-88
2022/04/19 04:27:02;;;;;;;;;;;;;;;4.27;99.08;99302.50;6338239;22;20314;-86
2022/04/19 04:29:27;;;;;;;;;;;;;;;4.21;98.62;99297.41;6337993;22;19915;-89
2022/04/19 04:31:53;;;;;;;;;;;;;;;4.17;98.33;99301.88;6336767;22;20245;-87
2022/04/19 04:34:18;;;;;;;;;;;;;;;4.11;98.02;99302.03;6338251;22;19919;-86
2022/04/19 04:36:43;;;;;;;;;;;;;;;4.08;97.88;99296.84;6338416;22;19911;-86
2022/04/19 04:39:09;;;;;;;;;;;;;;;3.99;97.74;99302.34;6338563;22;19921;-86
2022/04/19 04:41:34;;;;;;;;;;;;;;;3.98;97.29;99295.34;6338305;22;19911;-84
2022/04/19 04:43:59;;;;;;;;;;;;;;;3.93;96.93;99299.84;6338259;22;19919;-85
2022/04/19 07:53:59;;;;;;;;;;;;;;;2.96;85.44;99297.53;6363318;22;19963;-87
2022/04/19 07:56:24;;;;;;;;;;;;;;;3.24;88.22;99294.38;6369261;22;19915;-88
2022/04/19 07:58:50;;;;;;;;;;;;;;;3.28;90.07;99288.19;6369768;22;20336;-86
2022/04/19 08:01:16;;;;;;;;;;;;;;;3.27;91.00;99287.31;6369699;22;19910;-87
2022/04/19 08:03:41;;;;;;;;;;;;;;;3.28;91.42;99282.94;6369809;22;19917;-85
2022/04/19 08:06:07;;;;;;;;;;;;;;;3.27;91.78;99286.44;6369146;22;19910;-84
2022/04/19 08:08:32;;;;;;;;;;;;;;;3.25;91.97;99280.38;6339088;22;19910;-83
2022/04/19 08:10:58;;;;;;;;;;;;;;;3.26;92.16;99284.72;6370669;22;19949;-83
2022/04/19 08:13:23;;;;;;;;;;;;;;;3.26;91.92;99279.50;6368609;22;20242;-84
2022/04/19 08:15:48;;;;;;;;;;;;;;;3.27;91.87;99278.59;6369594;22;19906;-83
2022/04/19 08:18:14;;;;;;;;;;;;;;;3.25;91.66;99281.22;6342180;22;20005;-88
2022/04/19 08:20:43;;;;;;;;;;;;;;;3.25;91.57;99273.38;6341360;22;20241;-87
2022/04/19 08:23:09;;;;;;;;;;;;;;;3.24;91.49;99273.44;6368726;22;20241;-87
2022/04/19 08:25:35;;;;;;;;;;;;;;;3.23;91.49;99269.09;6342046;22;19914;-84
2022/04/19 08:28:00;;;;;;;;;;;;;;;3.25;91.49;99262.06;6341570;22;19916;-85
2022/04/19 08:30:25;;;;;;;;;;;;;;;3.26;91.58;99259.41;6368636;22;19997;-85
2022/04/19 08:32:51;;;;;;;;;;;;;;;3.28;91.33;99264.59;6369911;22;19910;-84
2022/04/19 08:35:19;;;;;;;;;;;;;;;3.27;91.21;99250.66;6370150;22;19914;-86
2022/04/19 08:37:45;;;;;;;;;;;;;;;3.28;91.19;99256.75;6368321;22;19919;-84
2022/04/19 08:40:11;;;;;;;;;;;;;;;3.26;90.95;99253.31;6370379;22;19910;-84
2022/04/19 08:42:38;;;;;;;;;;;;;;;3.26;91.01;99248.94;6340345;22;19945;-84
2022/04/19 08:45:04;;;;;;;;;;;;;;;3.30;90.98;99249.72;6341597;22;19914;-84
2022/04/19 08:47:33;;;;;;;;;;;;;;;3.32;90.66;99253.19;6341622;22;20336;-83
2022/04/19 08:50:03;;;;;;;;;;;;;;;3.35;90.45;99247.00;6341366;22;19989;-87
2022/04/19 08:52:28;;;;;;;;;;;;;;;3.34;90.07;99246.16;6339701;22;19937;-87
2022/04/19 08:57:38;;;;;;;;;;;;;;;3.34;89.17;99238.28;6369451;22;19956;-84
2022/04/19 09:00:04;;;;;;;;;;;;;;;3.38;89.15;99237.34;6369036;22;20338;-85
2022/04/19 09:02:31;;;;;;;;;;;;;;;3.34;88.77;99230.44;6340642;22;19918;-85
2022/04/19 09:05:17;;;;;;;;;;;;;;;3.37;88.71;99235.59;6368684;22;19937;-89
2022/04/19 09:07:43;;;;;;;;;;;;;;;3.36;88.48;99228.63;6339475;22;20242;-87
2022/04/19 09:10:14;;;;;;;;;;;;;;;3.40;88.37;99232.91;6369589;22;19940;-84
2022/04/19 09:12:54;;;;;;;;;;;;;;;3.40;88.39;99237.31;6339426;22;19914;-85
2022/04/19 09:15:20;;;;;;;;;;;;;;;3.44;88.18;99233.69;6369247;22;19910;-83
2022/04/19 09:17:47;;;;;;;;;;;;;;;3.48;88.01;99226.63;6341279;22;19910;-86
2022/04/19 09:20:15;;;;;;;;;;;;;;;3.44;87.90;99226.69;6368586;22;19911;-85
2022/04/19 09:22:42;;;;;;;;;;;;;;;3.46;87.76;99226.66;6336357;22;20222;-86
2022/04/19 09:25:21;;;;;;;;;;;;;;;3.46;87.49;99218.81;6368402;22;20320;-89
2022/04/19 09:27:48;;;;;;;;;;;;;;;3.48;87.32;99218.78;6368434;22;19948;-88
2022/04/19 09:30:20;;;;;;;;;;;;;;;3.47;87.42;99210.06;6367663;22;19989;-84
2022/04/19 09:33:01;;;;;;;;;;;;;;;3.53;87.39;99209.94;6340805;22;19917;-84
2022/04/19 09:35:29;;;;;;;;;;;;;;;3.51;87.21;99206.50;6368808;22;19960;-85
2022/04/19 09:37:56;;;;;;;;;;;;;;;3.53;86.98;99203.84;6365915;22;20241;-88
2022/04/19 09:40:31;;;;;;;;;;;;;;;3.56;86.70;99203.75;6367829;22;19975;-85
2022/04/19 09:42:57;;;;;;;;;;;;;;;3.57;86.63;99195.84;6340305;22;19910;-86
2022/04/19 09:45:23;;;;;;;;;;;;;;;3.58;86.39;99196.72;6368838;22;19917;-88
2022/04/19 09:47:52;;;;;;;;;;;;;;;3.60;86.20;99200.16;6369054;22;20376;-84
2022/04/19 09:50:17;;;;;;;;;;;;;;;3.59;86.03;99190.56;6368604;22;19910;-85
2022/04/19 09:52:48;;;;;;;;;;;;;;;3.61;85.90;99187.03;6338602;22;19955;-85
2022/04/19 09:55:19;;;;;;;;;;;;;;;3.62;85.53;99187.88;6340969;22;19978;-85
2022/04/19 09:57:45;;;;;;;;;;;;;;;3.62;85.43;99180.00;6341342;22;19910;-84
2022/04/19 10:00:12;;;;;;;;;;;;;;;3.62;84.95;99172.16;6366835;22;20248;-84
2022/04/19 10:08:19;;;;;;;;;;;;;;;3.60;84.68;99164.31;6366817;22;19971;-87
2022/04/19 10:10:46;;;;;;;;;;;;;;;4.60;86.07;99173.13;6367760;22;20038;-74
2022/04/19 10:13:13;;;;;;;;;;;;;;;4.96;84.47;99154.56;6368705;22;19914;-84
2022/04/19 10:15:40;;;;;;;;;;;;;;;4.34;84.40;99159.81;6368539;22;19910;-84
2022/04/19 10:18:06;;;;;;;;;;;;;;;4.14;84.39;99155.09;6367525;22;19964;-83
2022/04/19 10:20:32;;;;;;;;;;;;;;;4.07;84.58;99157.91;6369129;22;19914;-84
2022/04/19 10:23:02;;;;;;;;;;;;;;;3.99;84.33;99163.38;6367545;22;19910;-86
2022/04/19 10:25:41;;;;;;;;;;;;;;;3.95;84.29;99159.13;6368910;22;19910;-86
2022/04/19 10:28:09;;;;;;;;;;;;;;;3.91;84.20;99153.09;6370911;22;19957;-85
2022/04/19 10:30:35;;;;;;;;;;;;;;;3.91;84.15;99152.22;6342981;22;19918;-85
2022/04/19 10:33:40;;;;;;;;;;;;;;;3.90;84.25;99150.50;6370451;22;19955;-87
2022/04/19 10:36:18;;;;;;;;;;;;;;;3.90;84.37;99153.13;6272796;22;19915;-86
2022/04/19 10:38:45;;;;;;;;;;;;;;;3.92;84.35;99153.94;6246442;22;19954;-86
2022/04/19 10:41:11;;;;;;;;;;;;;;;3.91;83.99;99150.47;6326824;22;19997;-85
2022/04/19 10:43:39;;;;;;;;;;;;;;;3.89;83.99;99143.53;6370485;22;19941;-85
2022/04/19 10:46:21;;;;;;;;;;;;;;;3.90;83.85;99140.88;6343120;22;19996;-86
2022/04/19 10:49:05;;;;;;;;;;;;;;;3.90;83.84;99145.28;6368900;22;19916;-87
2022/04/19 10:51:30;;;;;;;;;;;;;;;3.91;83.63;99147.84;6341577;22;19938;-86
2022/04/19 10:53:55;;;;;;;;;;;;;;;3.92;83.11;99138.22;6369770;22;20354;-85
2022/04/19 10:56:21;;;;;;;;;;;;;;;3.92;82.74;99144.31;6370250;22;19910;-87
2022/04/19 10:58:46;;;;;;;;;;;;;;;3.93;82.07;99134.72;6342311;22;19914;-84
2022/04/19 11:01:31;;;;;;;;;;;;;;;3.92;81.32;99135.59;6341644;22;20386;-85
2022/04/19 11:03:56;;;;;;;;;;;;;;;3.90;80.92;99133.03;6370998;22;19910;-85
2022/04/19 11:06:31;;;;;;;;;;;;;;;3.93;80.96;99132.09;6369389;22;20345;-86
2022/04/19 11:09:08;;;;;;;;;;;;;;;3.92;80.19;99123.34;6370637;22;19910;-85
2022/04/19 11:11:44;;;;;;;;;;;;;;;3.92;80.50;99128.59;6342391;22;20229;-85
2022/04/19 11:14:15;;;;;;;;;;;;;;;3.90;80.67;99119.91;6341487;22;19910;-87
2022/04/19 11:16:41;;;;;;;;;;;;;;;3.93;80.86;99124.22;6370578;22;20294;-86
2022/04/19 11:19:16;;;;;;;;;;;;;;;3.94;80.76;99118.06;6369776;22;19921;-85
2022/04/19 11:21:59;;;;;;;;;;;;;;;3.91;80.85;99112.91;6340501;22;19910;-86
2022/04/19 11:24:51;;;;;;;;;;;;;;;3.91;80.76;99108.53;6341074;22;19921;-86
2022/04/19 11:27:52;;;;;;;;;;;;;;;3.96;80.73;99108.41;6341550;22;19925;-85
2022/04/19 11:30:17;;;;;;;;;;;;;;;3.99;80.69;99106.56;6369576;22;19915;-85
2022/04/19 11:32:48;;;;;;;;;;;;;;;3.96;80.39;99103.19;6370034;22;19910;-87
2022/04/19 11:35:15;;;;;;;;;;;;;;;4.00;80.84;99110.03;6342478;22;20237;-86
2022/04/19 11:37:42;;;;;;;;;;;;;;;4.02;80.81;99100.41;6367492;22;19921;-87
2022/04/19 11:48:33;;;;;;;;;;;;;;;4.10;81.85;99085.31;6369894;22;19936;-85
2022/04/19 11:51:11;;;;;;;;;;;;;;;4.16;81.78;99093.00;6342542;22;19914;-85
2022/04/19 11:53:37;;;;;;;;;;;;;;;4.16;81.56;99084.25;6368326;22;19914;-84
2022/04/19 11:56:03;;;;;;;;;;;;;;;4.15;81.35;99088.66;6368915;22;20377;-85
2022/04/19 11:58:28;;;;;;;;;;;;;;;4.17;81.04;99092.09;6369459;22;20325;-85
2022/04/19 12:00:58;;;;;;;;;;;;;;;4.14;81.11;99086.94;6370088;22;19914;-85
2022/04/19 12:03:30;;;;;;;;;;;;;;;4.18;81.37;99092.97;6369490;22;20126;-84
2022/04/19 12:06:04;;;;;;;;;;;;;;;4.24;81.34;99089.28;6369642;22;19910;-86
2022/04/19 12:08:42;;;;;;;;;;;;;;;4.21;81.21;99077.13;6368174;22;19914;-85
2022/04/19 12:11:08;;;;;;;;;;;;;;;4.27;81.19;99081.34;6369621;22;19996;-85
2022/04/19 12:13:34;;;;;;;;;;;;;;;4.27;81.11;99079.56;6369089;22;20349;-85
2022/04/19 12:16:09;;;;;;;;;;;;;;;4.25;80.56;99072.66;6369706;22;19936;-84
2022/04/19 12:18:35;;;;;;;;;;;;;;;4.29;80.68;99069.91;6369095;22;20036;-84
2022/04/19 12:21:01;;;;;;;;;;;;;;;4.30;80.67;99065.53;6342035;22;19921;-85
2022/04/19 12:23:59;;;;;;;;;;;;;;;4.34;80.80;99065.41;6368131;22;19906;-86
2022/04/19 12:26:25;;;;;;;;;;;;;;;4.31;80.59;99068.09;6329335;22;20007;-86
2022/04/19 12:28:50;;;;;;;;;;;;;;;4.33;80.66;99060.19;6341889;22;20272;-86
2022/04/19 12:31:29;;;;;;;;;;;;;;;4.34;80.69;99056.66;6370117;22;19950;-86
2022/04/19 12:33:54;;;;;;;;;;;;;;;4.33;80.59;99058.41;6369161;22;19914;-84
2022/04/19 12:36:22;;;;;;;;;;;;;;;4.37;80.59;99061.81;6341166;22;19995;-84
2022/04/19 12:38:56;;;;;;;;;;;;;;;4.36;80.11;99047.84;6368883;22;19911;-84
2022/04/19 12:41:22;;;;;;;;;;;;;;;4.40;79.68;99045.13;6342364;22;20363;-86
2022/04/19 12:43:47;;;;;;;;;;;;;;;4.39;79.83;99043.41;6342205;22;19906;-87
2022/04/19 12:46:14;;;;;;;;;;;;;;;4.36;79.28;99039.13;6342132;22;20245;-88
2022/04/19 12:48:40;;;;;;;;;;;;;;;4.46;80.01;99039.69;6342048;22;20233;-83
2022/04/19 12:51:05;;;;;;;;;;;;;;;4.53;80.74;99034.22;6369618;22;19954;-82
2022/04/19 12:53:33;;;;;;;;;;;;;;;4.64;82.43;99033.03;6339105;22;19941;-86
2022/04/19 12:56:08;;;;;;;;;;;;;;;4.66;83.92;99024.22;6370074;22;19910;-85
2022/04/19 12:58:41;;;;;;;;;;;;;;;4.66;85.38;99020.72;6369838;22;19921;-86
2022/04/19 13:01:06;;;;;;;;;;;;;;;4.65;86.70;99014.63;6368251;22;19934;-86
2022/04/19 13:03:31;;;;;;;;;;;;;;;4.55;87.38;99019.28;6341768;22;19914;-84
2022/04/19 13:14:08;;;;;;;;;;;;;;;4.45;91.59;99015.25;6368474;22;19962;-87
2022/04/19 13:16:34;;;;;;;;;;;;;;;4.58;93.78;99007.84;6370017;22;20001;-86
2022/04/19 13:18:59;;;;;;;;;;;;;;;4.84;96.85;99009.66;6342036;22;19917;-86
2022/04/19 13:21:26;;;;;;;;;;;;;;;5.13;100.00;99005.22;6340216;22;19918;-87
2022/04/19 13:23:51;;;;;;;;;;;;;;;5.30;100.00;98996.78;6368678;22;19985;-87
2022/04/19 13:26:16;;;;;;;;;;;;;;;5.46;100.00;98997.13;6341042;22;19953;-88
2022/04/19 13:28:45;;;;;;;;;;;;;;;5.56;100.00;98998.50;6340374;22;19914;-87
2022/04/19 13:31:10;;;;;;;;;;;;;;;5.62;100.00;98990.41;6340303;22;19922;-88
2022/04/19 13:33:35;;;;;;;;;;;;;;;5.69;100.00;98993.66;6367495;22;19957;-87
2022/04/19 13:36:01;;;;;;;;;;;;;;;5.67;100.00;98986.78;6367614;22;19925;-87
2022/04/19 13:38:26;;;;;;;;;;;;;;;5.84;100.00;98992.28;6339004;22;19946;-87
2022/04/19 13:40:52;;;;;;;;;;;;;;;5.90;100.00;98994.66;6340567;22;19950;-87
2022/04/19 13:43:17;;;;;;;;;;;;;;;5.93;100.00;98991.94;6368671;22;20318;-86
2022/04/19 13:45:43;;;;;;;;;;;;;;;5.96;100.00;98991.84;6368470;22;19917;-87
2022/04/19 13:48:08;;;;;;;;;;;;;;;5.99;100.00;98978.59;6340914;22;20378;-87
2022/04/19 13:50:33;;;;;;;;;;;;;;;6.03;100.00;98989.00;6367707;22;19959;-87
2022/04/19 13:53:01;;;;;;;;;;;;;;;6.10;100.00;98974.72;6333737;22;19933;-87
2022/04/19 13:55:28;;;;;;;;;;;;;;;6.14;100.00;98976.31;6337238;22;19914;-87
2022/04/19 13:57:54;;;;;;;;;;;;;;;6.21;100.00;98982.19;6336318;22;19911;-88
2022/04/19 14:00:20;;;;;;;;;;;;;;;6.24;100.00;98977.69;6334378;22;20495;-86
2022/04/19 14:02:45;;;;;;;;;;;;;;;6.28;100.00;98974.00;6336018;22;19949;-87
2022/04/19 14:05:11;;;;;;;;;;;;;;;6.31;100.00;98975.69;6335971;22;19914;-88
2022/04/19 14:07:37;;;;;;;;;;;;;;;6.34;100.00;98981.66;6336691;22;20225;-87
2022/04/19 14:10:04;;;;;;;;;;;;;;;6.39;100.00;98975.38;6336418;22;19993;-86
2022/04/19 14:12:29;;;;;;;;;;;;;;;6.35;100.00;98978.13;6335908;22;19921;-87
2022/04/19 14:14:54;;;;;;;;;;;;;;;6.43;100.00;98974.34;6335652;22;19911;-88
2022/04/19 14:17:21;;;;;;;;;;;;;;;6.46;100.00;98976.84;6336576;22;19911;-86
2022/04/19 14:19:46;;;;;;;;;;;;;;;6.50;100.00;98970.56;6337055;22;19915;-88
2022/04/19 14:22:15;;;;;;;;;;;;;;;6.54;100.00;98975.66;6335543;22;19998;-87
2022/04/19 14:24:40;;;;;;;;;;;;;;;6.55;100.00;98973.84;6335907;22;19914;-88
2022/04/19 14:27:06;;;;;;;;;;;;;;;6.57;100.00;98966.75;6337224;22;19915;-87
2022/04/19 14:34:59;;;;;;;;;;;;;;;5.16;100.00;98965.72;6337130;22;19959;-89
2022/04/19 14:37:24;;;;;;;;;;;;;;;5.09;100.00;98961.59;6335541;22;19910;-88
2022/04/19 14:39:49;;;;;;;;;;;;;;;4.96;100.00;98963.75;6337226;22;20314;-87
2022/04/19 14:42:15;;;;;;;;;;;;;;;4.96;100.00;98963.75;6336967;22;19910;-88
2022/04/19 14:44:40;;;;;;;;;;;;;;;4.90;100.00;98971.84;6334346;22;20210;-87
2022/04/19 14:47:06;;;;;;;;;;;;;;;4.84;100.00;98975.53;6337468;22;19942;-88
2022/04/19 14:49:32;;;;;;;;;;;;;;;4.77;100.00;98966.16;6334350;22;19921;-87
2022/04/19 14:52:16;;;;;;;;;;;;;;;4.71;100.00;98966.34;6334580;22;19933;-89
2022/04/19 14:54:48;;;;;;;;;;;;;;;4.64;100.00;98960.44;6366135;22;19922;-86
2022/04/19 14:57:14;;;;;;;;;;;;;;;4.60;100.00;98963.19;6337165;22;19919;-86
2022/04/19 14:59:40;;;;;;;;;;;;;;;4.58;99.94;98959.75;6297454;22;19937;-95
2022/04/19 15:02:06;;;;;;;;;;;;;;;4.58;99.63;98957.13;6305232;22;19921;-87
2022/04/19 15:04:31;;;;;;;;;;;;;;;4.54;99.29;98951.13;6330371;22;19974;-85
2022/04/19 15:06:57;;;;;;;;;;;;;;;4.49;98.73;98955.66;6305676;22;19961;-91
2022/04/19 15:09:23;;;;;;;;;;;;;;;4.50;98.48;98957.34;6305300;22;19953;-89
2022/04/19 15:11:48;;;;;;;;;;;;;;;4.47;98.38;98957.47;6301869;22;19914;-90
2022/04/19 15:14:13;;;;;;;;;;;;;;;4.48;97.88;98953.94;6307793;22;19972;-89
2022/04/19 15:16:38;;;;;;;;;;;;;;;4.43;97.71;98951.44;6306715;22;20344;-94
2022/04/19 15:19:04;;;;;;;;;;;;;;;4.41;97.41;98948.03;6308161;22;19964;-90
2022/04/19 15:21:29;;;;;;;;;;;;;;;4.41;97.28;98958.50;6307485;22;19918;-91
2022/04/19 15:23:55;;;;;;;;;;;;;;;4.37;96.85;98946.38;6308681;22;19946;-90
2022/04/19 15:26:21;;;;;;;;;;;;;;;4.36;96.47;98944.69;6306275;22;19911;-86
2022/04/19 15:28:46;;;;;;;;;;;;;;;4.40;96.24;98943.66;6307339;22;20597;-87
2022/04/19 15:31:15;;;;;;;;;;;;;;;4.29;95.65;98943.16;6332297;22;20006;-90
2022/04/19 15:33:40;;;;;;;;;;;;;;;4.33;95.32;98942.16;6307661;22;19911;-89
2022/04/19 15:36:06;;;;;;;;;;;;;;;4.31;94.91;98942.22;6307724;22;19921;-88
2022/04/19 15:38:31;;;;;;;;;;;;;;;4.30;94.66;98942.25;6307762;22;19915;-90
2022/04/19 15:40:57;;;;;;;;;;;;;;;4.33;94.11;98950.03;6308056;22;20373;-87
2022/04/19 15:43:22;;;;;;;;;;;;;;;4.27;93.92;98950.22;6306256;22;19915;-86
2022/04/19 15:45:47;;;;;;;;;;;;;;;4.24;93.66;98947.69;6305253;22;19942;-91
2022/04/19 15:48:15;;;;;;;;;;;;;;;4.23;93.29;98943.34;6306805;22;19986;-87
2022/04/19 15:50:42;;;;;;;;;;;;;;;4.22;93.11;98949.50;6332009;22;20002;-87
2022/04/19 15:53:08;;;;;;;;;;;;;;;4.21;92.84;98945.16;6280663;22;19911;-86
2022/04/19 15:55:33;;;;;;;;;;;;;;;4.18;92.56;98943.50;6308022;22;19915;-88
2022/04/19 15:57:58;;;;;;;;;;;;;;;4.19;92.64;98943.41;6330647;22;20274;-88
2022/04/19 16:00:25;;;;;;;;;;;;;;;4.18;92.41;98946.13;6332798;22;20338;-90
2022/04/19 16:02:50;;;;;;;;;;;;;;;4.17;92.19;98941.78;6307818;22;20354;-87
2022/04/19 16:05:16;;;;;;;;;;;;;;;4.11;92.17;98945.41;6307454;22;19946;-88
2022/04/19 16:07:41;;;;;;;;;;;;;;;4.14;91.89;98940.09;6308084;22;20323;-91
2022/04/19 16:10:06;;;;;;;;;;;;;;;4.12;91.87;98931.41;6307580;22;19918;-86
2022/04/19 16:12:32;;;;;;;;;;;;;;;4.10;91.68;98938.47;6306100;22;19957;-92
2022/04/19 16:14:57;;;;;;;;;;;;;;;4.08;91.75;98937.66;6307567;22;19921;-91
2022/04/19 16:25:35;;;;;;;;;;;;;;;4.04;91.57;98933.41;6307635;22;19994;-85
2022/04/19 16:28:00;;;;;;;;;;;;;;;4.06;91.46;98933.38;6306338;22;19950;-90
2022/04/19 16:30:26;;;;;;;;;;;;;;;4.04;91.32;98940.41;6307955;22;19910;-84
2022/04/19 16:32:51;;;;;;;;;;;;;;;4.04;91.46;98936.03;6307792;22;19910;-86
2022/04/19 16:35:17;;;;;;;;;;;;;;;4.05;91.42;98931.63;6305454;22;20380;-84
2022/04/19 16:37:42;;;;;;;;;;;;;;;4.02;91.39;98937.84;6307026;22;19934;-85
2022/04/19 16:40:07;;;;;;;;;;;;;;;4.00;91.32;98935.28;6307036;22;19911;-86
2022/04/19 16:42:33;;;;;;;;;;;;;;;4.01;91.22;98938.75;6304613;22;19911;-86
2022/04/19 16:44:58;;;;;;;;;;;;;;;4.00;91.10;98935.28;6330922;22;19915;-88
2022/04/19 16:47:25;;;;;;;;;;;;;;;3.96;91.12;98940.66;6305704;22;19915;-85
2022/04/19 16:49:50;;;;;;;;;;;;;;;3.93;91.10;98935.50;6307940;22;19979;-85
2022/04/19 16:52:16;;;;;;;;;;;;;;;3.92;91.00;98944.25;6307895;22;19989;-83
2022/04/19 16:54:41;;;;;;;;;;;;;;;3.92;90.91;98934.63;6307536;22;19918;-86
2022/04/19 16:57:06;;;;;;;;;;;;;;;3.89;90.80;98939.09;6305436;22;19915;-84
2022/04/19 16:59:32;;;;;;;;;;;;;;;3.89;90.74;98933.84;6305377;22;19994;-85
2022/04/19 17:01:57;;;;;;;;;;;;;;;3.90;90.87;98927.72;6306706;22;19911;-86
2022/04/19 17:04:22;;;;;;;;;;;;;;;3.84;90.75;98931.38;6306632;22;20231;-85
2022/04/19 17:06:47;;;;;;;;;;;;;;;3.87;90.66;98935.66;6305315;22;19911;-84
2022/04/19 17:09:14;;;;;;;;;;;;;;;3.87;90.66;98930.44;6307188;22;20358;-84
2022/04/19 17:11:39;;;;;;;;;;;;;;;3.86;90.42;98942.69;6305912;22;19914;-92
2022/04/19 17:14:05;;;;;;;;;;;;;;;3.87;90.27;98941.75;6305474;22;20267;-88
2022/04/19 17:16:30;;;;;;;;;;;;;;;3.84;90.22;98944.47;6307074;22;20303;-86
2022/04/19 17:18:57;;;;;;;;;;;;;;;3.81;89.87;98947.19;6306908;22;19911;-87
2022/04/19 17:21:29;;;;;;;;;;;;;;;3.79;89.98;98944.59;6331461;22;19947;-87
2022/04/19 17:23:57;;;;;;;;;;;;;;;3.84;90.08;98951.47;6306951;22;19907;-89
2022/04/19 17:26:34;;;;;;;;;;;;;;;3.84;89.68;98948.88;6328139;22;20285;-89
2022/04/19 17:28:59;;;;;;;;;;;;;;;3.90;89.21;98953.94;6304200;22;19952;-85
2022/04/19 17:31:24;;;;;;;;;;;;;;;3.85;89.29;98961.06;6304873;22;19936;-87
2022/04/19 17:33:50;;;;;;;;;;;;;;;3.75;89.05;98953.47;6305205;22;19989;-92
2022/04/19 17:36:16;;;;;;;;;;;;;;;3.80;89.25;98964.66;6330596;22;19994;-89
2022/04/19 17:38:41;;;;;;;;;;;;;;;3.76;89.20;98965.66;6306666;22;19973;-89
2022/04/19 17:41:08;;;;;;;;;;;;;;;3.76;88.98;98962.19;6330625;22;19994;-89
2022/04/19 17:43:33;;;;;;;;;;;;;;;3.74;88.97;98967.47;6305492;22;19914;-89
2022/04/19 17:45:59;;;;;;;;;;;;;;;3.83;89.04;98971.59;6306839;22;20406;-88
2022/04/19 17:48:24;;;;;;;;;;;;;;;3.74;88.76;98975.31;6331495;22;19914;-89
2022/04/19 17:56:29;;;;;;;;;;;;;;;3.76;89.08;98975.28;6306254;22;19956;-87
2022/04/19 17:59:07;;;;;;;;;;;;;;;3.68;88.93;98985.97;6306405;22;20382;-88
2022/04/19 18:01:33;;;;;;;;;;;;;;;3.70;88.91;98992.06;6280374;22;19918;-88
2022/04/19 18:04:02;;;;;;;;;;;;;;;3.70;88.90;98992.06;6306236;22;19911;-91
2022/04/19 18:06:30;;;;;;;;;;;;;;;3.66;88.74;98995.66;6279298;22;20326;-86
2022/04/19 18:08:56;;;;;;;;;;;;;;;3.68;88.71;98996.44;6279167;22;19911;-87
2022/04/19 18:11:21;;;;;;;;;;;;;;;3.72;88.56;99000.72;6305046;22;20382;-89
2022/04/19 18:13:48;;;;;;;;;;;;;;;3.67;88.48;98999.13;6278767;22;20342;-86
2022/04/19 18:16:14;;;;;;;;;;;;;;;3.66;88.56;99002.66;6306422;22;20467;-89
2022/04/19 18:18:39;;;;;;;;;;;;;;;3.65;88.43;99014.88;6306545;22;19915;-89
2022/04/19 18:21:04;;;;;;;;;;;;;;;3.67;88.50;99015.72;6306441;22;19934;-91
2022/04/19 18:26:22;;;;;;;;;;;;;;;3.67;88.37;99020.06;6306509;22;19926;-87
2022/04/19 18:28:48;;;;;;;;;;;;;;;3.66;88.30;99021.84;6306455;22;19910;-85
2022/04/19 18:31:13;;;;;;;;;;;;;;;3.64;88.21;99034.13;6279301;22;19975;-89
2022/04/19 18:33:41;;;;;;;;;;;;;;;3.67;88.17;99033.16;6306554;22;20388;-88
2022/04/19 18:36:08;;;;;;;;;;;;;;;3.64;88.15;99034.97;6305330;22;19918;-92
2022/04/19 18:38:35;;;;;;;;;;;;;;;3.61;88.28;99037.69;6278348;22;19918;-88
2022/04/19 18:41:02;;;;;;;;;;;;;;;3.67;88.20;99039.28;6305705;22;19994;-90
2022/04/19 18:43:27;;;;;;;;;;;;;;;3.67;88.03;99047.16;6304443;22;19934;-94
2022/04/19 18:45:52;;;;;;;;;;;;;;;3.65;87.85;99046.31;6305727;22;19969;-90
2022/04/19 18:48:18;;;;;;;;;;;;;;;3.61;87.80;99057.78;6306722;22;19914;-87
2022/04/19 18:50:43;;;;;;;;;;;;;;;3.63;87.83;99063.84;6306728;22;19961;-89
2022/04/19 18:53:08;;;;;;;;;;;;;;;3.62;87.61;99064.72;6307005;22;19942;-86
2022/04/19 18:55:34;;;;;;;;;;;;;;;3.63;87.66;99069.09;6307183;22;19917;-87
2022/04/19 18:57:59;;;;;;;;;;;;;;;3.59;87.51;99075.28;6305152;22;19942;-88
2022/04/19 19:00:24;;;;;;;;;;;;;;;3.59;87.52;99089.28;6307295;22;19938;-89
2022/04/19 19:02:51;;;;;;;;;;;;;;;3.56;87.47;99086.72;6307450;22;19930;-87
2022/04/19 19:05:18;;;;;;;;;;;;;;;3.59;87.47;99086.66;6307150;22;20318;-91
2022/04/19 19:07:43;;;;;;;;;;;;;;;3.60;87.19;99097.97;6307316;22;20326;-91
2022/04/19 19:10:09;;;;;;;;;;;;;;;3.56;87.21;99098.97;6307616;22;19911;-89
2022/04/19 19:12:35;;;;;;;;;;;;;;;3.58;87.37;99113.72;6305725;22;19915;-88
2022/04/19 19:15:00;;;;;;;;;;;;;;;3.59;87.26;99104.09;6306818;22;20323;-90
2022/04/19 19:17:26;;;;;;;;;;;;;;;3.58;87.36;99102.41;6279805;22;19911;-87
2022/04/19 19:19:51;;;;;;;;;;;;;;;3.57;87.24;99116.41;6307120;22;19914;-84
2022/04/19 19:22:16;;;;;;;;;;;;;;;3.58;87.16;99120.75;6306347;22;19922;-90
2022/04/19 19:24:41;;;;;;;;;;;;;;;3.57;86.88;99121.63;6306816;22;19940;-91
2022/04/19 19:27:07;;;;;;;;;;;;;;;3.58;87.05;99129.47;6277943;22;19978;-89
2022/04/19 19:29:32;;;;;;;;;;;;;;;3.57;86.92;99129.50;6307051;22;19985;-84
2022/04/19 19:32:00;;;;;;;;;;;;;;;3.56;86.74;99135.66;6307108;22;19910;-93
2022/04/19 19:34:26;;;;;;;;;;;;;;;3.61;86.74;99136.38;6279793;22;19915;-90
2022/04/19 19:36:51;;;;;;;;;;;;;;;3.55;86.64;99145.25;6279508;22;19917;-91
2022/04/19 19:39:19;;;;;;;;;;;;;;;3.54;86.62;99142.66;6279590;22;19993;-88
2022/04/19 19:41:46;;;;;;;;;;;;;;;3.58;86.63;99145.19;6278977;22;20346;-89
2022/04/19 19:44:11;;;;;;;;;;;;;;;3.58;86.29;99149.56;6307432;22;19911;-88
2022/04/19 19:46:36;;;;;;;;;;;;;;;3.56;86.21;99151.38;6307133;22;20337;-87
2022/04/19 19:49:02;;;;;;;;;;;;;;;3.58;86.16;99152.19;6306945;22;19915;-90
2022/04/19 19:51:27;;;;;;;;;;;;;;;3.57;86.09;99160.94;6306987;22;19934;-84
2022/04/19 19:53:52;;;;;;;;;;;;;;;3.57;85.96;99160.94;6307496;22;19915;-91
2022/04/19 19:56:17;;;;;;;;;;;;;;;3.58;85.89;99167.91;6306311;22;20223;-84
2022/04/19 19:58:43;;;;;;;;;;;;;;;3.57;85.67;99168.78;6305940;22;19926;-89
2022/04/19 20:01:09;;;;;;;;;;;;;;;3.57;85.68;99169.63;6307268;22;20243;-88
2022/04/19 20:03:34;;;;;;;;;;;;;;;3.58;85.61;99178.38;6307180;22;19925;-85
2022/04/19 20:06:00;;;;;;;;;;;;;;;3.60;85.37;99171.34;6306611;22;20328;-93
2022/04/19 20:08:25;;;;;;;;;;;;;;;3.58;85.22;99175.75;6306730;22;19911;-92
2022/04/19 20:10:51;;;;;;;;;;;;;;;3.59;85.18;99177.47;6306626;22;20255;-91
2022/04/19 20:13:20;;;;;;;;;;;;;;;3.57;84.93;99174.88;6305388;22;19962;-89
2022/04/19 20:15:45;;;;;;;;;;;;;;;3.61;84.89;99186.16;6306398;22;19941;-85
2022/04/19 20:18:11;;;;;;;;;;;;;;;3.61;84.56;99180.94;6306424;22;19911;-89
2022/04/19 20:20:36;;;;;;;;;;;;;;;3.61;84.58;99183.56;6306045;22;19986;-91